createdAt,value
2018-07-13T00:00:26.906Z,9.25
2018-07-13T00:02:54.903Z,8.80
2018-07-13T00:05:22.904Z,9.50
2018-07-13T00:07:51.485Z,8.73
2018-07-13T00:10:19.732Z,8.98
2018-07-13T00:12:47.857Z,9.70
2018-07-13T00:15:15.981Z,9.70
2018-07-13T00:17:44.056Z,10.05
2018-07-13T00:20:12.057Z,10.23
2018-07-13T00:22:40.016Z,9.63
2018-07-13T00:25:08.323Z,10.10
2018-07-13T00:27:36.604Z,10.20
2018-07-13T00:30:04.885Z,10.55
2018-07-13T00:32:33.089Z,10.00
2018-07-13T00:35:01.582Z,10.20
2018-07-13T00:37:29.955Z,10.60
2018-07-13T00:39:58.733Z,10.05
2018-07-13T00:42:26.995Z,11.20
2018-07-13T00:44:55.360Z,10.43
2018-07-13T00:47:23.577Z,11.33
2018-07-13T00:49:51.842Z,10.70
2018-07-13T00:52:19.805Z,10.53
2018-07-13T00:54:48.269Z,11.30
2018-07-13T00:57:16.541Z,12.00
2018-07-13T00:59:45.133Z,12.37
2018-07-13T01:02:13.056Z,12.55
2018-07-13T01:04:41.050Z,12.88
2018-07-13T01:07:09.648Z,13.00
2018-07-13T01:09:38.436Z,13.50
2018-07-13T01:12:06.409Z,12.65
2018-07-13T01:14:34.689Z,13.00
2018-07-13T01:17:02.924Z,12.70
2018-07-13T01:19:30.835Z,13.65
2018-07-13T01:21:59.081Z,13.05
2018-07-13T01:24:28.186Z,13.38
2018-07-13T01:26:56.339Z,13.68
2018-07-13T01:29:24.658Z,14.87
2018-07-13T01:31:52.609Z,14.87
2018-07-13T01:34:21.518Z,14.45
2018-07-13T01:36:49.751Z,16.23
2018-07-13T01:39:18.167Z,15.80
2018-07-13T01:41:46.308Z,17.60
2018-07-13T01:44:14.306Z,16.30
2018-07-13T01:46:42.897Z,16.50
2018-07-13T01:49:11.206Z,16.48
2018-07-13T01:51:39.107Z,17.20
2018-07-13T01:54:07.080Z,15.80
2018-07-13T01:56:35.600Z,16.93
2018-07-13T01:59:04.149Z,16.75
2018-07-13T02:01:32.110Z,17.00
2018-07-13T02:04:00.065Z,16.62
2018-07-13T02:06:28.600Z,16.30
2018-07-13T02:08:57.356Z,16.52
2018-07-13T02:11:25.438Z,16.45
2018-07-13T02:13:53.648Z,15.50
2018-07-13T02:16:22.121Z,15.53
2018-07-13T02:18:50.391Z,15.53
2018-07-13T02:21:18.924Z,15.93
2018-07-13T02:23:47.208Z,16.32
2018-07-13T02:26:15.368Z,16.43
2018-07-13T02:28:43.604Z,15.80
2018-07-13T02:31:12.116Z,16.15
2018-07-13T02:33:40.377Z,17.17
2018-07-13T02:36:08.581Z,17.05
2018-07-13T02:38:36.525Z,16.90
2018-07-13T02:41:04.872Z,16.60
2018-07-13T02:43:33.628Z,16.37
2018-07-13T02:46:02.253Z,16.05
2018-07-13T02:48:30.267Z,16.87
2018-07-13T02:50:58.530Z,15.75
2018-07-13T02:53:26.994Z,16.82
2018-07-13T02:55:54.888Z,18.05
2018-07-13T02:58:23.180Z,16.82
2018-07-13T03:00:51.621Z,17.95
2018-07-13T03:03:19.593Z,16.23
2018-07-13T03:05:47.806Z,17.50
2018-07-13T03:08:15.765Z,17.07
2018-07-13T03:10:43.720Z,15.93
2018-07-13T03:13:11.933Z,15.95
2018-07-13T03:15:40.563Z,15.95
2018-07-13T03:18:08.517Z,16.40
2018-07-13T03:20:36.706Z,15.98
2018-07-13T03:23:04.660Z,16.05
2018-07-13T03:25:32.936Z,15.90
2018-07-13T03:28:01.120Z,15.55
2018-07-13T03:30:29.303Z,16.12
2018-07-13T03:32:57.580Z,15.48
2018-07-13T03:35:25.510Z,15.83
2018-07-13T03:37:53.857Z,17.05
2018-07-13T03:40:21.846Z,16.32
2018-07-13T03:42:51.401Z,15.58
2018-07-13T03:45:19.676Z,15.90
2018-07-13T03:47:47.688Z,15.63
2018-07-13T03:50:15.932Z,16.67
2018-07-13T03:52:44.304Z,16.85
2018-07-13T03:55:12.268Z,16.25
2018-07-13T03:57:40.553Z,16.32
2018-07-13T04:00:08.577Z,16.27
2018-07-13T04:02:36.876Z,15.50
2018-07-13T04:05:04.838Z,15.70
2018-07-13T04:07:33.619Z,15.90
2018-07-13T04:10:02.245Z,17.07
2018-07-13T04:12:31.127Z,15.83
2018-07-13T04:14:59.729Z,16.10
2018-07-13T04:17:27.972Z,16.57
2018-07-13T04:19:56.474Z,15.65
2018-07-13T04:22:25.061Z,16.00
2018-07-13T04:24:53.089Z,16.20
2018-07-13T04:27:21.408Z,15.70
2018-07-13T04:29:49.436Z,15.70
2018-07-13T04:32:17.717Z,15.50
2018-07-13T04:34:45.932Z,16.30
2018-07-13T04:37:14.152Z,16.70
2018-07-13T04:39:42.688Z,15.78
2018-07-13T04:42:10.680Z,15.50
2018-07-13T04:44:39.181Z,15.45
2018-07-13T04:47:07.516Z,17.00
2018-07-13T04:49:35.846Z,15.75
2018-07-13T04:52:04.554Z,15.70
2018-07-13T04:54:32.531Z,16.97
2018-07-13T04:57:00.704Z,15.53
2018-07-13T04:59:28.737Z,14.50
2018-07-13T05:01:57.019Z,14.83
2018-07-13T05:04:25.020Z,14.73
2018-07-13T05:06:52.980Z,15.95
2018-07-13T05:09:20.969Z,14.68
2018-07-13T05:11:49.234Z,14.58
2018-07-13T05:14:17.216Z,14.47
2018-07-13T05:16:45.514Z,14.50
2018-07-13T05:19:13.459Z,13.58
2018-07-13T05:21:41.454Z,13.58
2018-07-13T05:24:10.033Z,13.15
2018-07-13T05:26:38.660Z,14.10
2018-07-13T05:29:07.060Z,13.40
2018-07-13T05:31:35.335Z,14.07
2018-07-13T05:34:03.298Z,14.43
2018-07-13T05:36:31.301Z,14.10
2018-07-13T05:38:59.393Z,13.38
2018-07-13T05:41:27.385Z,13.95
2018-07-13T05:43:55.509Z,13.40
2018-07-13T05:46:23.682Z,13.22
2018-07-13T05:48:51.720Z,13.85
2018-07-13T05:51:19.763Z,12.85
2018-07-13T05:53:47.749Z,14.03
2018-07-13T05:56:16.632Z,12.20
2018-07-13T05:58:44.984Z,12.97
2018-07-13T06:01:13.649Z,13.55
2018-07-13T06:03:42.303Z,12.90
2018-07-13T06:06:10.272Z,13.50
2018-07-13T06:08:38.609Z,12.95
2018-07-13T06:11:06.657Z,12.68
2018-07-13T06:13:34.611Z,12.82
2018-07-13T06:16:03.068Z,12.13
2018-07-13T06:18:31.616Z,12.47
2018-07-13T06:20:59.640Z,12.80
2018-07-13T06:23:27.606Z,12.40
2018-07-13T06:25:55.945Z,13.50
2018-07-13T06:28:24.213Z,12.37
2018-07-13T06:30:52.205Z,12.88
2018-07-13T06:33:20.759Z,12.07
2018-07-13T06:35:48.680Z,12.98
2018-07-13T06:38:17.008Z,10.55
2018-07-13T06:40:45.071Z,10.90
2018-07-13T06:43:13.424Z,11.28
2018-07-13T06:45:42.232Z,10.58
2018-07-13T06:48:10.480Z,9.78
2018-07-13T06:50:38.701Z,10.48
2018-07-13T06:53:06.984Z,10.55
2018-07-13T06:55:35.769Z,11.78
2018-07-13T06:58:09.948Z,11.50
2018-07-13T07:00:58.566Z,11.40
2018-07-13T07:03:27.813Z,11.37
2018-07-13T07:05:57.848Z,10.10
2018-07-13T07:08:25.627Z,12.10
2018-07-13T07:10:53.478Z,10.80
2018-07-13T07:13:26.741Z,10.08
2018-07-13T07:15:54.635Z,10.53
2018-07-13T07:18:22.676Z,10.90
2018-07-13T07:20:50.671Z,8.98
2018-07-13T07:23:18.854Z,9.60
2018-07-13T07:25:47.038Z,9.55
2018-07-13T07:28:15.165Z,9.65
2018-07-13T07:30:43.341Z,9.93
2018-07-13T07:33:11.256Z,9.98
2018-07-13T07:35:39.381Z,8.87
2018-07-13T07:38:07.445Z,9.77
2018-07-13T07:40:36.181Z,9.30
2018-07-13T07:43:04.738Z,8.93
2018-07-13T07:45:33.050Z,9.05
2018-07-13T07:48:01.220Z,9.23
2018-07-13T07:50:29.189Z,8.73
2018-07-13T07:52:57.176Z,8.50
2018-07-13T07:55:25.952Z,9.00
2018-07-13T07:57:54.124Z,8.35
2018-07-13T08:00:22.065Z,8.68
2018-07-13T08:02:50.618Z,9.00
2018-07-13T08:05:18.564Z,8.05
2018-07-13T08:07:47.106Z,8.50
2018-07-13T08:10:15.172Z,8.50
2018-07-13T08:12:43.117Z,7.55
2018-07-13T08:15:11.385Z,8.00
2018-07-13T08:17:39.701Z,6.92
2018-07-13T08:20:08.013Z,7.92
2018-07-13T08:22:39.036Z,9.85
2018-07-13T08:25:07.953Z,8.50
2018-07-13T08:27:37.288Z,8.18
2018-07-13T08:30:06.077Z,9.08
2018-07-13T08:32:34.160Z,8.20
2018-07-13T08:35:02.124Z,8.20
2018-07-13T08:37:30.337Z,7.72
2018-07-13T08:39:58.552Z,7.20
2018-07-13T08:42:26.891Z,7.40
2018-07-13T08:44:54.925Z,6.53
2018-07-13T08:47:23.192Z,6.35
2018-07-13T08:49:51.253Z,6.97
2018-07-13T08:52:19.494Z,6.55
2018-07-13T08:54:47.582Z,6.50
2018-07-13T08:57:15.876Z,6.37
2018-07-13T08:59:44.146Z,6.00
2018-07-13T09:02:12.331Z,5.53
2018-07-13T09:04:40.781Z,5.50
2018-07-13T09:07:09.350Z,5.63
2018-07-13T09:09:37.521Z,6.05
2018-07-13T09:12:05.643Z,5.72
2018-07-13T09:14:33.977Z,5.58
2018-07-13T09:17:02.354Z,4.80
2018-07-13T09:19:30.579Z,5.10
2018-07-13T09:21:58.617Z,5.37
2018-07-13T09:24:26.809Z,5.70
2018-07-13T09:26:55.052Z,5.85
2018-07-13T09:29:23.681Z,5.65
2018-07-13T09:31:51.817Z,5.90
2018-07-13T09:34:20.234Z,5.90
2018-07-13T09:36:48.813Z,5.80
2018-07-13T09:39:17.390Z,6.27
2018-07-13T09:41:45.529Z,5.80
2018-07-13T09:44:13.816Z,4.83
2018-07-13T09:46:41.959Z,5.20
2018-07-13T09:49:11.305Z,6.53
2018-07-13T09:51:39.834Z,5.85
2018-07-13T09:54:08.143Z,5.83
2018-07-13T09:56:36.915Z,6.08
2018-07-13T09:59:05.243Z,5.40
2018-07-13T10:01:33.614Z,5.55
2018-07-13T10:04:01.794Z,5.25
2018-07-13T10:06:30.529Z,6.40
2018-07-13T10:08:58.804Z,6.20
2018-07-13T10:11:26.979Z,4.35
2018-07-13T10:13:55.220Z,4.90
2018-07-13T10:16:23.565Z,4.40
2018-07-13T10:18:52.883Z,4.30
2018-07-13T10:21:21.447Z,4.50
2018-07-13T10:23:50.168Z,4.57
2018-07-13T10:26:35.890Z,4.30
2018-07-13T10:29:05.626Z,4.50
2018-07-13T10:31:34.013Z,4.05
2018-07-13T10:34:02.209Z,4.45
2018-07-13T10:36:32.634Z,3.80
2018-07-13T10:39:00.954Z,4.28
2018-07-13T10:41:28.987Z,5.20
2018-07-13T10:43:57.124Z,4.10
2018-07-13T10:46:25.894Z,4.40
2018-07-13T10:48:54.294Z,4.28
2018-07-13T10:51:22.510Z,3.60
2018-07-13T10:53:50.799Z,3.92
2018-07-13T10:56:19.034Z,4.30
2018-07-13T10:58:47.390Z,4.10
2018-07-13T11:01:15.435Z,4.35
2018-07-13T11:03:43.666Z,3.97
2018-07-13T11:06:11.913Z,3.90
2018-07-13T11:08:40.534Z,3.80
2018-07-13T11:11:08.714Z,3.90
2018-07-13T11:13:37.001Z,4.00
2018-07-13T11:16:05.262Z,4.00
2018-07-13T11:18:33.882Z,4.05
2018-07-13T11:21:02.097Z,4.30
2018-07-13T11:23:30.281Z,3.70
2018-07-13T11:25:58.630Z,3.70
2018-07-13T11:28:27.089Z,3.90
2018-07-13T11:30:55.273Z,3.50
2018-07-13T11:33:23.754Z,3.40
2018-07-13T11:35:52.158Z,3.47
2018-07-13T11:38:20.595Z,3.50
2018-07-13T11:40:48.823Z,3.80
2018-07-13T11:43:18.055Z,3.92
2018-07-13T11:45:46.593Z,3.62
2018-07-13T11:48:14.746Z,4.03
2018-07-13T11:50:42.952Z,3.95
2018-07-13T11:53:11.769Z,3.50
2018-07-13T11:55:39.845Z,3.30
2018-07-13T11:58:08.249Z,3.87
2018-07-13T12:00:36.334Z,3.60
2018-07-13T12:03:05.755Z,3.27
2018-07-13T12:05:33.882Z,3.90
2018-07-13T12:08:02.441Z,3.25
2018-07-13T12:10:30.758Z,3.80
2018-07-13T12:12:58.867Z,3.30
2018-07-13T12:15:27.599Z,3.40
2018-07-13T12:17:55.913Z,3.40
2018-07-13T12:20:24.356Z,2.95
2018-07-13T12:22:52.486Z,3.72
2018-07-13T12:25:20.979Z,3.60
2018-07-13T12:27:49.193Z,3.20
2018-07-13T12:30:17.962Z,3.30
2018-07-13T12:32:46.081Z,3.60
2018-07-13T12:35:14.839Z,3.40
2018-07-13T12:37:42.850Z,3.55
2018-07-13T12:40:10.918Z,3.22
2018-07-13T12:42:39.868Z,3.90
2018-07-13T12:45:07.930Z,3.87
2018-07-13T12:47:36.320Z,3.50
2018-07-13T12:50:04.669Z,3.50
2018-07-13T12:52:32.702Z,3.80
2018-07-13T12:55:01.053Z,4.20
2018-07-13T12:57:29.203Z,3.37
2018-07-13T12:59:57.386Z,3.40
2018-07-13T13:02:25.791Z,3.20
2018-07-13T13:04:53.868Z,3.30
2018-07-13T13:07:21.962Z,3.70
2018-07-13T13:09:49.999Z,3.52
2018-07-13T13:12:18.369Z,3.47
2018-07-13T13:14:47.267Z,3.30
2018-07-13T13:17:15.371Z,3.63
2018-07-13T13:19:44.025Z,3.85
2018-07-13T13:22:12.427Z,3.30
2018-07-13T13:24:40.551Z,3.23
2018-07-13T13:27:09.252Z,3.55
2018-07-13T13:29:37.633Z,3.30
2018-07-13T13:32:06.082Z,3.50
2018-07-13T13:34:34.507Z,3.27
2018-07-13T13:37:03.192Z,3.30
2018-07-13T13:39:31.533Z,3.10
2018-07-13T13:42:00.563Z,3.25
2018-07-13T13:44:29.046Z,4.53
2018-07-13T13:46:57.086Z,3.40
2018-07-13T13:49:26.319Z,3.50
2018-07-13T13:51:55.521Z,3.60
2018-07-13T13:54:23.676Z,3.50
2018-07-13T13:56:52.038Z,3.22
2018-07-13T13:59:20.347Z,3.60
2018-07-13T14:01:48.722Z,3.90
2018-07-13T14:04:16.997Z,3.55
2018-07-13T14:06:45.386Z,3.20
2018-07-13T14:09:14.001Z,3.50
2018-07-13T14:11:42.681Z,3.40
2018-07-13T14:14:10.813Z,3.70
2018-07-13T14:16:38.854Z,3.60
2018-07-13T14:19:07.770Z,3.58
2018-07-13T14:21:36.842Z,3.80
2018-07-13T14:24:04.834Z,3.67
2018-07-13T14:26:32.878Z,3.17
2018-07-13T14:29:01.333Z,3.55
2018-07-13T14:31:29.507Z,3.12
2018-07-13T14:33:58.063Z,3.60
2018-07-13T14:36:26.851Z,3.30
2018-07-13T14:38:55.231Z,3.60
2018-07-13T14:41:23.312Z,3.40
2018-07-13T14:43:52.395Z,4.03
2018-07-13T14:46:20.695Z,3.70
2018-07-13T14:48:48.949Z,3.30
2018-07-13T14:51:17.241Z,3.70
2018-07-13T14:53:45.371Z,3.70
2018-07-13T14:56:14.701Z,3.20
2018-07-13T14:58:42.995Z,3.40
2018-07-13T15:01:11.247Z,3.20
2018-07-13T15:03:39.314Z,3.50
2018-07-13T15:06:07.388Z,3.60
2018-07-13T15:08:35.964Z,3.40
2018-07-13T15:11:03.972Z,3.50
2018-07-13T15:13:31.901Z,3.60
2018-07-13T15:15:59.829Z,3.73
2018-07-13T15:18:28.134Z,3.70
2018-07-13T15:20:56.953Z,3.30
2018-07-13T15:23:25.222Z,3.52
2018-07-13T15:25:53.533Z,4.08
2018-07-13T15:28:21.797Z,3.70
2018-07-13T15:30:49.944Z,4.37
2018-07-13T15:33:17.969Z,3.87
2018-07-13T15:35:46.114Z,4.00
2018-07-13T15:38:14.061Z,3.70
2018-07-13T15:40:42.128Z,3.27
2018-07-13T15:43:10.546Z,3.30
2018-07-13T15:45:38.656Z,3.90
2018-07-13T15:48:06.843Z,3.20
2018-07-13T15:50:34.961Z,4.08
2018-07-13T15:53:03.087Z,3.70
2018-07-13T15:55:36.567Z,4.72
2018-07-13T15:58:04.679Z,4.40
2018-07-13T16:00:33.210Z,4.10
2018-07-13T16:03:01.361Z,3.98
2018-07-13T16:05:29.513Z,3.80
2018-07-13T16:07:57.855Z,3.67
2018-07-13T16:10:26.182Z,2.60
2018-07-13T16:12:54.345Z,2.60
2018-07-13T16:15:22.474Z,2.80
2018-07-13T16:17:50.649Z,2.50
2018-07-13T16:20:18.842Z,2.10
2018-07-13T16:22:47.041Z,2.60
2018-07-13T16:25:15.115Z,2.80
2018-07-13T16:27:43.256Z,3.20
2018-07-13T16:30:11.338Z,2.80
2018-07-13T16:32:39.478Z,2.70
2018-07-13T16:35:07.703Z,3.33
2018-07-13T16:37:35.943Z,3.67
2018-07-13T16:40:04.397Z,2.90
2018-07-13T16:42:32.442Z,3.47
2018-07-13T16:45:00.505Z,3.47
2018-07-13T16:47:29.559Z,3.25
2018-07-13T16:49:57.715Z,3.67
2018-07-13T16:52:25.879Z,4.40
2018-07-13T16:54:54.262Z,4.10
2018-07-13T16:57:22.513Z,4.90
2018-07-13T16:59:50.579Z,4.97
2018-07-13T17:02:18.837Z,5.25
2018-07-13T17:04:47.467Z,5.50
2018-07-13T17:07:15.695Z,5.35
2018-07-13T17:09:43.764Z,4.60
2018-07-13T17:12:12.000Z,4.50
2018-07-13T17:14:40.258Z,3.20
2018-07-13T17:17:08.447Z,1.90
2018-07-13T17:19:36.684Z,1.50
2018-07-13T17:22:04.805Z,2.25
2018-07-13T17:24:33.266Z,2.60
2018-07-13T17:27:01.442Z,7.00
2018-07-13T17:29:30.326Z,5.47
2018-07-13T17:31:58.484Z,7.00
2018-07-13T17:34:26.680Z,5.65
2018-07-13T17:36:55.111Z,5.70
2018-07-13T17:39:23.503Z,4.60
2018-07-13T17:41:51.641Z,3.85
2018-07-13T17:44:19.921Z,3.12
2018-07-13T17:46:48.370Z,3.90
2018-07-13T17:49:16.891Z,5.87
2018-07-13T17:51:45.534Z,3.90
2018-07-13T17:54:13.633Z,3.40
2018-07-13T17:56:41.817Z,1.90
2018-07-13T17:59:10.077Z,3.37
2018-07-13T18:01:38.462Z,2.70
2018-07-13T18:04:07.101Z,2.40
2018-07-13T18:06:36.284Z,2.22
2018-07-13T18:09:04.865Z,2.72
2018-07-13T18:11:33.097Z,4.80
2018-07-13T18:14:01.438Z,3.52
2018-07-13T18:16:30.778Z,2.83
2018-07-13T18:18:59.324Z,3.52
2018-07-13T18:21:27.550Z,3.70
2018-07-13T18:23:55.678Z,4.20
2018-07-13T18:26:23.977Z,4.40
2018-07-13T18:28:52.458Z,3.40
2018-07-13T18:31:20.969Z,3.80
2018-07-13T18:33:49.111Z,3.87
2018-07-13T18:36:17.873Z,3.90
2018-07-13T18:38:45.908Z,4.00
2018-07-13T18:41:15.019Z,4.37
2018-07-13T18:43:43.757Z,4.33
2018-07-13T18:46:12.762Z,4.17
2018-07-13T18:48:41.066Z,3.70
2018-07-13T18:51:10.021Z,3.50
2018-07-13T18:53:38.577Z,3.67
2018-07-13T18:56:07.426Z,3.90
2018-07-13T18:58:35.507Z,5.85
2018-07-13T19:01:04.347Z,4.60
2018-07-13T19:03:33.018Z,3.33
2018-07-13T19:06:01.157Z,3.50
2018-07-13T19:08:29.642Z,3.50
2018-07-13T19:10:58.372Z,3.45
2018-07-13T19:13:26.917Z,3.73
2018-07-13T19:15:55.246Z,3.90
2018-07-13T19:18:24.242Z,3.90
2018-07-13T19:20:52.792Z,3.10
2018-07-13T19:23:21.062Z,3.47
2018-07-13T19:25:49.890Z,3.60
2018-07-13T19:28:18.113Z,3.30
2018-07-13T19:30:46.238Z,3.47
2018-07-13T19:33:14.182Z,3.37
2018-07-13T19:35:42.673Z,3.08
2018-07-13T19:38:11.437Z,3.50
2018-07-13T19:40:40.105Z,3.62
2018-07-13T19:43:08.628Z,3.40
2018-07-13T19:45:37.308Z,3.37
2018-07-13T19:48:05.887Z,3.80
2018-07-13T19:50:34.710Z,3.50
2018-07-13T19:53:03.289Z,3.42
2018-07-13T19:55:32.498Z,3.60
2018-07-13T19:58:01.090Z,3.35
2018-07-13T20:00:29.493Z,3.50
2018-07-13T20:02:58.098Z,3.20
2018-07-13T20:05:26.623Z,2.80
2018-07-13T20:07:55.205Z,3.70
2018-07-13T20:10:23.671Z,3.05
2018-07-13T20:12:52.106Z,3.72
2018-07-13T20:15:20.813Z,3.20
2018-07-13T20:17:49.417Z,3.37
2018-07-13T20:20:17.553Z,3.40
2018-07-13T20:22:45.754Z,3.30
2018-07-13T20:25:13.810Z,3.20
2018-07-13T20:27:42.166Z,3.42
2018-07-13T20:30:10.794Z,3.22
2018-07-13T20:32:38.731Z,3.40
2018-07-13T20:35:07.128Z,3.25
2018-07-13T20:37:35.871Z,3.10
2018-07-13T20:40:03.836Z,3.00
2018-07-13T20:42:32.182Z,3.60
2018-07-13T20:45:00.397Z,3.50
2018-07-13T20:47:28.412Z,3.60
2018-07-13T20:49:56.593Z,3.30
2018-07-13T20:52:24.614Z,3.23
2018-07-13T20:54:52.863Z,3.60
2018-07-13T20:57:21.032Z,3.83
2018-07-13T20:59:49.130Z,4.00
2018-07-13T21:02:18.037Z,3.60
2018-07-13T21:04:46.815Z,3.90
2018-07-13T21:07:14.733Z,3.60
2018-07-13T21:09:42.834Z,4.30
2018-07-13T21:12:10.952Z,3.95
2018-07-13T21:14:38.875Z,4.40
2018-07-13T21:17:06.841Z,4.55
2018-07-13T21:19:35.149Z,4.50
2018-07-13T21:22:03.214Z,4.05
2018-07-13T21:24:31.152Z,4.30
2018-07-13T21:26:59.436Z,4.70
2018-07-13T21:29:27.612Z,4.05
2018-07-13T21:31:55.628Z,4.60
2018-07-13T21:34:23.553Z,4.12
2018-07-13T21:36:51.512Z,4.90
2018-07-13T21:39:19.796Z,4.47
2018-07-13T21:41:48.253Z,4.90
2018-07-13T21:44:16.465Z,4.40
2018-07-13T21:46:44.621Z,6.50
2018-07-13T21:49:12.572Z,4.92
2018-07-13T21:51:41.053Z,4.75
2018-07-13T21:54:09.091Z,4.50
2018-07-13T21:56:37.224Z,5.37
2018-07-13T21:59:05.465Z,5.22
2018-07-13T22:01:33.459Z,6.08
2018-07-13T22:04:01.610Z,7.78
2018-07-13T22:06:29.556Z,5.33
2018-07-13T22:08:57.677Z,4.80
2018-07-13T22:11:25.705Z,4.55
2018-07-13T22:13:54.103Z,4.17
2018-07-13T22:16:22.113Z,4.80
2018-07-13T22:18:50.265Z,4.63
2018-07-13T22:21:18.555Z,4.80
2018-07-13T22:23:46.698Z,4.45
2018-07-13T22:26:14.612Z,5.15
2018-07-13T22:28:43.709Z,5.10
2018-07-13T22:31:11.903Z,5.20
2018-07-13T22:33:40.816Z,5.58
2018-07-13T22:36:09.868Z,4.53
2018-07-13T22:38:38.669Z,4.70
2018-07-13T22:41:06.926Z,5.17
2018-07-13T22:43:35.308Z,5.40
2018-07-13T22:46:03.666Z,5.05
2018-07-13T22:48:32.213Z,4.70
2018-07-13T22:51:00.764Z,4.70
2018-07-13T22:53:29.029Z,4.97
2018-07-13T22:55:57.048Z,4.83
2018-07-13T22:58:25.607Z,4.70
2018-07-13T23:00:54.497Z,4.78
2018-07-13T23:03:22.740Z,5.22
2018-07-13T23:05:50.699Z,4.97
2018-07-13T23:08:19.236Z,5.10
2018-07-13T23:10:47.899Z,4.60
2018-07-13T23:13:16.323Z,4.97
2018-07-13T23:15:44.520Z,5.17
2018-07-13T23:18:13.105Z,5.30
2018-07-13T23:20:41.885Z,4.50
2018-07-13T23:23:10.004Z,5.45
2018-07-13T23:25:38.192Z,4.70
2018-07-13T23:28:06.454Z,5.50
2018-07-13T23:30:34.906Z,4.90
2018-07-13T23:33:03.555Z,5.15
2018-07-13T23:35:33.115Z,5.67
2018-07-13T23:38:02.074Z,5.00
2018-07-13T23:40:30.270Z,4.90
2018-07-13T23:42:58.542Z,5.00
2018-07-13T23:45:27.157Z,4.90
2018-07-13T23:47:55.620Z,4.70
2018-07-13T23:50:24.473Z,5.00
2018-07-13T23:52:52.786Z,4.80
2018-07-13T23:55:21.170Z,5.00
2018-07-13T23:57:49.584Z,5.70
